sensor_id;sensor_type;location;lat;lon;timestamp;P1;durP1;ratioP1;P2;durP2;ratioP2
54388;SDS011;40975;50.390;8.640;2022-11-28T00:00:24;11.02;;;6.50;;
54388;SDS011;40975;50.390;8.640;2022-11-28T00:02:49;11.77;;;6.10;;
54388;SDS011;40975;50.390;8.640;2022-11-28T00:05:14;10.05;;;5.55;;
54388;SDS011;40975;50.390;8.640;2022-11-28T00:07:40;10.30;;;5.55;;
54388;SDS011;40975;50.390;8.640;2022-11-28T00:10:05;9.88;;;5.57;;
54388;SDS011;40975;50.390;8.640;2022-11-28T00:12:33;11.23;;;6.15;;
54388;SDS011;40975;50.390;8.640;2022-11-28T00:14:58;9.40;;;5.93;;
54388;SDS011;40975;50.390;8.640;2022-11-28T00:17:24;8.25;;;5.05;;
54388;SDS011;40975;50.390;8.640;2022-11-28T00:19:49;8.52;;;5.53;;
54388;SDS011;40975;50.390;8.640;2022-11-28T00:22:14;10.27;;;5.45;;
54388;SDS011;40975;50.390;8.640;2022-11-28T00:24:40;12.68;;;6.18;;
54388;SDS011;40975;50.390;8.640;2022-11-28T00:27:05;8.30;;;5.53;;
54388;SDS011;40975;50.390;8.640;2022-11-28T00:29:30;9.30;;;5.65;;
54388;SDS011;40975;50.390;8.640;2022-11-28T00:31:56;13.00;;;6.78;;
54388;SDS011;40975;50.390;8.640;2022-11-28T00:34:21;11.18;;;6.10;;
54388;SDS011;40975;50.390;8.640;2022-11-28T00:36:46;9.80;;;6.38;;
54388;SDS011;40975;50.390;8.640;2022-11-28T00:39:13;11.07;;;5.95;;
54388;SDS011;40975;50.390;8.640;2022-11-28T00:41:40;12.85;;;6.45;;
54388;SDS011;40975;50.390;8.640;2022-11-28T00:44:05;10.77;;;5.97;;
54388;SDS011;40975;50.390;8.640;2022-11-28T00:46:31;11.13;;;6.78;;
54388;SDS011;40975;50.390;8.640;2022-11-28T00:48:57;11.35;;;6.70;;
54388;SDS011;40975;50.390;8.640;2022-11-28T00:51:24;9.70;;;6.00;;
54388;SDS011;40975;50.390;8.640;2022-11-28T00:53:51;10.57;;;6.30;;
54388;SDS011;40975;50.390;8.640;2022-11-28T00:56:18;11.25;;;6.82;;
54388;SDS011;40975;50.390;8.640;2022-11-28T00:58:45;9.70;;;5.75;;
54388;SDS011;40975;50.390;8.640;2022-11-28T01:01:14;9.50;;;6.15;;
54388;SDS011;40975;50.390;8.640;2022-11-28T01:03:42;10.27;;;5.63;;
54388;SDS011;40975;50.390;8.640;2022-11-28T01:06:07;10.15;;;5.95;;
54388;SDS011;40975;50.390;8.640;2022-11-28T01:08:34;11.25;;;6.60;;
54388;SDS011;40975;50.390;8.640;2022-11-28T01:11:00;9.88;;;6.00;;
54388;SDS011;40975;50.390;8.640;2022-11-28T01:13:26;10.45;;;5.90;;
54388;SDS011;40975;50.390;8.640;2022-11-28T01:15:51;11.50;;;6.50;;
54388;SDS011;40975;50.390;8.640;2022-11-28T01:18:17;8.55;;;5.68;;
54388;SDS011;40975;50.390;8.640;2022-11-28T01:20:42;10.77;;;5.53;;
54388;SDS011;40975;50.390;8.640;2022-11-28T01:23:07;11.20;;;5.93;;
54388;SDS011;40975;50.390;8.640;2022-11-28T01:25:33;8.23;;;5.97;;
54388;SDS011;40975;50.390;8.640;2022-11-28T01:27:59;10.23;;;6.15;;
54388;SDS011;40975;50.390;8.640;2022-11-28T01:30:24;11.60;;;6.65;;
54388;SDS011;40975;50.390;8.640;2022-11-28T01:32:50;9.48;;;5.72;;
54388;SDS011;40975;50.390;8.640;2022-11-28T01:35:15;10.68;;;6.55;;
54388;SDS011;40975;50.390;8.640;2022-11-28T01:37:40;10.38;;;6.00;;
54388;SDS011;40975;50.390;8.640;2022-11-28T01:40:06;11.75;;;6.05;;
54388;SDS011;40975;50.390;8.640;2022-11-28T01:42:32;10.45;;;5.75;;
54388;SDS011;40975;50.390;8.640;2022-11-28T01:45:01;11.65;;;6.78;;
54388;SDS011;40975;50.390;8.640;2022-11-28T01:47:30;13.18;;;6.70;;
54388;SDS011;40975;50.390;8.640;2022-11-28T01:49:57;12.45;;;7.13;;
54388;SDS011;40975;50.390;8.640;2022-11-28T01:52:24;10.40;;;5.90;;
54388;SDS011;40975;50.390;8.640;2022-11-28T01:54:52;13.98;;;6.65;;
54388;SDS011;40975;50.390;8.640;2022-11-28T01:57:22;11.77;;;6.70;;
54388;SDS011;40975;50.390;8.640;2022-11-28T01:59:51;13.68;;;7.18;;
54388;SDS011;40975;50.390;8.640;2022-11-28T02:02:34;13.40;;;6.28;;
54388;SDS011;40975;50.390;8.640;2022-11-28T02:07:28;10.10;;;6.13;;
54388;SDS011;40975;50.390;8.640;2022-11-28T02:09:53;10.48;;;6.18;;
54388;SDS011;40975;50.390;8.640;2022-11-28T02:12:26;8.98;;;5.80;;
54388;SDS011;40975;50.390;8.640;2022-11-28T02:15:16;13.00;;;6.37;;
54388;SDS011;40975;50.390;8.640;2022-11-28T02:23:35;12.68;;;7.15;;
54388;SDS011;40975;50.390;8.640;2022-11-28T02:26:09;12.13;;;6.15;;
54388;SDS011;40975;50.390;8.640;2022-11-28T02:31:32;10.13;;;6.20;;
54388;SDS011;40975;50.390;8.640;2022-11-28T02:34:09;11.85;;;6.60;;
54388;SDS011;40975;50.390;8.640;2022-11-28T02:36:44;9.73;;;7.05;;
54388;SDS011;40975;50.390;8.640;2022-11-28T02:39:30;10.77;;;6.68;;
54388;SDS011;40975;50.390;8.640;2022-11-28T02:42:17;10.07;;;6.20;;
54388;SDS011;40975;50.390;8.640;2022-11-28T02:44:49;11.10;;;6.72;;
54388;SDS011;40975;50.390;8.640;2022-11-28T02:47:22;14.38;;;7.45;;
54388;SDS011;40975;50.390;8.640;2022-11-28T02:52:36;12.55;;;6.80;;
54388;SDS011;40975;50.390;8.640;2022-11-28T02:55:06;13.25;;;7.40;;
54388;SDS011;40975;50.390;8.640;2022-11-28T02:57:39;11.23;;;7.28;;
54388;SDS011;40975;50.390;8.640;2022-11-28T03:00:23;15.13;;;6.95;;
54388;SDS011;40975;50.390;8.640;2022-11-28T03:03:37;11.68;;;6.63;;
54388;SDS011;40975;50.390;8.640;2022-11-28T03:05:50;12.90;;;7.20;;
54388;SDS011;40975;50.390;8.640;2022-11-28T03:14:07;12.90;;;6.97;;
54388;SDS011;40975;50.390;8.640;2022-11-28T03:21:50;12.63;;;7.25;;
54388;SDS011;40975;50.390;8.640;2022-11-28T03:24:24;10.88;;;6.35;;
54388;SDS011;40975;50.390;8.640;2022-11-28T03:27:01;11.13;;;6.65;;
54388;SDS011;40975;50.390;8.640;2022-11-28T03:29:30;12.27;;;7.05;;
54388;SDS011;40975;50.390;8.640;2022-11-28T03:32:04;12.93;;;7.13;;
54388;SDS011;40975;50.390;8.640;2022-11-28T03:34:34;11.55;;;6.78;;
54388;SDS011;40975;50.390;8.640;2022-11-28T03:37:10;13.02;;;7.30;;
54388;SDS011;40975;50.390;8.640;2022-11-28T03:39:41;14.77;;;8.02;;
54388;SDS011;40975;50.390;8.640;2022-11-28T03:42:14;11.77;;;7.03;;
54388;SDS011;40975;50.390;8.640;2022-11-28T03:48:02;11.80;;;6.88;;
54388;SDS011;40975;50.390;8.640;2022-11-28T03:50:43;13.15;;;6.90;;
54388;SDS011;40975;50.390;8.640;2022-11-28T03:53:16;11.82;;;7.07;;
54388;SDS011;40975;50.390;8.640;2022-11-28T03:55:54;12.55;;;6.85;;
54388;SDS011;40975;50.390;8.640;2022-11-28T03:58:32;10.70;;;6.22;;
54388;SDS011;40975;50.390;8.640;2022-11-28T04:01:13;14.98;;;7.80;;
54388;SDS011;40975;50.390;8.640;2022-11-28T04:03:52;12.60;;;7.50;;
54388;SDS011;40975;50.390;8.640;2022-11-28T04:06:33;10.77;;;7.43;;
54388;SDS011;40975;50.390;8.640;2022-11-28T04:09:12;13.10;;;7.18;;
54388;SDS011;40975;50.390;8.640;2022-11-28T04:11:48;10.65;;;6.70;;
54388;SDS011;40975;50.390;8.640;2022-11-28T04:14:19;17.45;;;10.93;;
54388;SDS011;40975;50.390;8.640;2022-11-28T04:19:23;13.50;;;8.40;;
54388;SDS011;40975;50.390;8.640;2022-11-28T04:21:55;14.68;;;8.82;;
54388;SDS011;40975;50.390;8.640;2022-11-28T04:24:39;13.18;;;7.25;;
54388;SDS011;40975;50.390;8.640;2022-11-28T04:27:10;13.68;;;8.15;;
54388;SDS011;40975;50.390;8.640;2022-11-28T04:29:42;17.85;;;7.50;;
54388;SDS011;40975;50.390;8.640;2022-11-28T04:32:11;14.40;;;8.60;;
54388;SDS011;40975;50.390;8.640;2022-11-28T04:34:40;15.57;;;8.13;;
54388;SDS011;40975;50.390;8.640;2022-11-28T04:37:09;15.18;;;8.13;;
54388;SDS011;40975;50.390;8.640;2022-11-28T04:39:38;14.95;;;7.57;;
54388;SDS011;40975;50.390;8.640;2022-11-28T04:42:14;13.88;;;7.63;;
54388;SDS011;40975;50.390;8.640;2022-11-28T04:44:47;15.65;;;8.40;;
54388;SDS011;40975;50.390;8.640;2022-11-28T04:47:17;15.18;;;7.80;;
54388;SDS011;40975;50.390;8.640;2022-11-28T04:49:42;16.83;;;8.23;;
54388;SDS011;40975;50.390;8.640;2022-11-28T04:52:13;14.85;;;8.35;;
54388;SDS011;40975;50.390;8.640;2022-11-28T04:57:40;18.23;;;8.80;;
54388;SDS011;40975;50.390;8.640;2022-11-28T05:00:10;16.48;;;9.23;;
54388;SDS011;40975;50.390;8.640;2022-11-28T05:02:39;16.77;;;8.73;;
54388;SDS011;40975;50.390;8.640;2022-11-28T05:05:11;12.52;;;7.43;;
54388;SDS011;40975;50.390;8.640;2022-11-28T05:07:39;16.52;;;8.40;;
54388;SDS011;40975;50.390;8.640;2022-11-28T05:10:05;16.13;;;7.60;;
54388;SDS011;40975;50.390;8.640;2022-11-28T05:12:31;15.23;;;8.02;;
54388;SDS011;40975;50.390;8.640;2022-11-28T05:14:57;15.90;;;8.65;;
54388;SDS011;40975;50.390;8.640;2022-11-28T05:17:22;12.60;;;8.25;;
54388;SDS011;40975;50.390;8.640;2022-11-28T05:19:47;18.80;;;8.75;;
54388;SDS011;40975;50.390;8.640;2022-11-28T05:22:12;14.60;;;7.82;;
54388;SDS011;40975;50.390;8.640;2022-11-28T05:24:38;13.68;;;7.45;;
54388;SDS011;40975;50.390;8.640;2022-11-28T05:27:03;15.50;;;8.85;;
54388;SDS011;40975;50.390;8.640;2022-11-28T05:29:29;15.85;;;9.57;;
54388;SDS011;40975;50.390;8.640;2022-11-28T05:31:54;14.52;;;7.60;;
54388;SDS011;40975;50.390;8.640;2022-11-28T05:34:19;15.55;;;7.40;;
54388;SDS011;40975;50.390;8.640;2022-11-28T05:36:45;16.38;;;8.63;;
54388;SDS011;40975;50.390;8.640;2022-11-28T05:39:10;17.33;;;8.13;;
54388;SDS011;40975;50.390;8.640;2022-11-28T05:41:36;13.80;;;8.27;;
54388;SDS011;40975;50.390;8.640;2022-11-28T05:44:01;15.45;;;8.68;;
54388;SDS011;40975;50.390;8.640;2022-11-28T05:46:27;14.63;;;7.95;;
54388;SDS011;40975;50.390;8.640;2022-11-28T05:48:53;16.55;;;8.00;;
54388;SDS011;40975;50.390;8.640;2022-11-28T05:51:19;15.30;;;8.38;;
54388;SDS011;40975;50.390;8.640;2022-11-28T05:53:45;15.85;;;8.18;;
54388;SDS011;40975;50.390;8.640;2022-11-28T05:56:11;14.02;;;8.07;;
54388;SDS011;40975;50.390;8.640;2022-11-28T05:58:38;17.98;;;8.18;;
54388;SDS011;40975;50.390;8.640;2022-11-28T06:03:40;15.43;;;8.52;;
54388;SDS011;40975;50.390;8.640;2022-11-28T06:06:13;18.80;;;9.00;;
54388;SDS011;40975;50.390;8.640;2022-11-28T06:08:41;18.20;;;8.88;;
54388;SDS011;40975;50.390;8.640;2022-11-28T06:11:07;15.40;;;8.52;;
54388;SDS011;40975;50.390;8.640;2022-11-28T06:13:33;14.30;;;7.88;;
54388;SDS011;40975;50.390;8.640;2022-11-28T06:15:58;14.73;;;8.13;;
54388;SDS011;40975;50.390;8.640;2022-11-28T06:18:23;17.52;;;9.15;;
54388;SDS011;40975;50.390;8.640;2022-11-28T06:20:49;20.50;;;9.57;;
54388;SDS011;40975;50.390;8.640;2022-11-28T06:23:14;18.90;;;8.98;;
54388;SDS011;40975;50.390;8.640;2022-11-28T06:25:40;18.25;;;8.43;;
54388;SDS011;40975;50.390;8.640;2022-11-28T06:28:05;16.08;;;8.13;;
54388;SDS011;40975;50.390;8.640;2022-11-28T06:30:31;21.02;;;9.18;;
54388;SDS011;40975;50.390;8.640;2022-11-28T06:32:56;23.52;;;11.55;;
54388;SDS011;40975;50.390;8.640;2022-11-28T06:35:21;23.17;;;10.05;;
54388;SDS011;40975;50.390;8.640;2022-11-28T06:37:47;17.88;;;9.00;;
54388;SDS011;40975;50.390;8.640;2022-11-28T06:40:12;16.73;;;9.35;;
54388;SDS011;40975;50.390;8.640;2022-11-28T06:42:37;16.90;;;9.20;;
54388;SDS011;40975;50.390;8.640;2022-11-28T06:45:03;16.95;;;8.20;;
54388;SDS011;40975;50.390;8.640;2022-11-28T06:47:29;15.43;;;7.72;;
54388;SDS011;40975;50.390;8.640;2022-11-28T06:49:55;15.98;;;8.32;;
54388;SDS011;40975;50.390;8.640;2022-11-28T06:52:20;13.98;;;8.02;;
54388;SDS011;40975;50.390;8.640;2022-11-28T06:54:45;20.50;;;8.75;;
54388;SDS011;40975;50.390;8.640;2022-11-28T06:57:11;16.55;;;8.40;;
54388;SDS011;40975;50.390;8.640;2022-11-28T06:59:37;18.35;;;9.80;;
54388;SDS011;40975;50.390;8.640;2022-11-28T07:02:02;15.63;;;9.00;;
54388;SDS011;40975;50.390;8.640;2022-11-28T07:04:28;16.33;;;9.85;;
54388;SDS011;40975;50.390;8.640;2022-11-28T07:06:53;18.38;;;9.77;;
54388;SDS011;40975;50.390;8.640;2022-11-28T07:09:18;19.67;;;10.82;;
54388;SDS011;40975;50.390;8.640;2022-11-28T07:11:44;16.83;;;8.50;;
54388;SDS011;40975;50.390;8.640;2022-11-28T07:14:09;15.48;;;7.65;;
54388;SDS011;40975;50.390;8.640;2022-11-28T07:16:35;14.88;;;8.43;;
54388;SDS011;40975;50.390;8.640;2022-11-28T07:19:01;17.80;;;9.25;;
54388;SDS011;40975;50.390;8.640;2022-11-28T07:21:27;19.45;;;9.40;;
54388;SDS011;40975;50.390;8.640;2022-11-28T07:23:53;16.08;;;8.48;;
54388;SDS011;40975;50.390;8.640;2022-11-28T07:26:19;17.05;;;9.45;;
54388;SDS011;40975;50.390;8.640;2022-11-28T07:28:46;15.57;;;8.45;;
54388;SDS011;40975;50.390;8.640;2022-11-28T07:33:39;21.58;;;8.95;;
54388;SDS011;40975;50.390;8.640;2022-11-28T07:36:07;18.23;;;9.52;;
54388;SDS011;40975;50.390;8.640;2022-11-28T07:38:36;17.38;;;8.48;;
54388;SDS011;40975;50.390;8.640;2022-11-28T07:41:08;17.17;;;8.52;;
54388;SDS011;40975;50.390;8.640;2022-11-28T07:43:35;18.05;;;8.82;;
54388;SDS011;40975;50.390;8.640;2022-11-28T07:46:04;14.43;;;8.00;;
54388;SDS011;40975;50.390;8.640;2022-11-28T07:48:32;17.08;;;8.60;;
54388;SDS011;40975;50.390;8.640;2022-11-28T07:50:57;16.13;;;9.20;;
54388;SDS011;40975;50.390;8.640;2022-11-28T07:53:23;17.42;;;8.68;;
54388;SDS011;40975;50.390;8.640;2022-11-28T07:55:48;18.55;;;9.70;;
54388;SDS011;40975;50.390;8.640;2022-11-28T07:58:13;14.65;;;9.02;;
54388;SDS011;40975;50.390;8.640;2022-11-28T08:00:39;18.00;;;9.65;;
54388;SDS011;40975;50.390;8.640;2022-11-28T08:03:04;18.08;;;9.50;;
54388;SDS011;40975;50.390;8.640;2022-11-28T08:05:30;22.55;;;9.45;;
54388;SDS011;40975;50.390;8.640;2022-11-28T08:07:55;15.77;;;8.60;;
54388;SDS011;40975;50.390;8.640;2022-11-28T08:10:21;19.05;;;10.68;;
54388;SDS011;40975;50.390;8.640;2022-11-28T08:12:46;18.23;;;10.13;;
54388;SDS011;40975;50.390;8.640;2022-11-28T08:15:11;16.48;;;8.88;;
54388;SDS011;40975;50.390;8.640;2022-11-28T08:17:37;16.70;;;8.55;;
54388;SDS011;40975;50.390;8.640;2022-11-28T08:20:02;14.32;;;8.35;;
54388;SDS011;40975;50.390;8.640;2022-11-28T08:22:28;14.93;;;7.85;;
54388;SDS011;40975;50.390;8.640;2022-11-28T08:24:53;14.00;;;8.18;;
54388;SDS011;40975;50.390;8.640;2022-11-28T08:27:18;13.25;;;7.70;;
54388;SDS011;40975;50.390;8.640;2022-11-28T08:29:44;15.68;;;8.35;;
54388;SDS011;40975;50.390;8.640;2022-11-28T08:32:09;15.23;;;8.82;;
54388;SDS011;40975;50.390;8.640;2022-11-28T08:34:34;13.30;;;7.85;;
54388;SDS011;40975;50.390;8.640;2022-11-28T08:37:00;14.88;;;8.13;;
54388;SDS011;40975;50.390;8.640;2022-11-28T08:39:25;17.55;;;9.07;;
54388;SDS011;40975;50.390;8.640;2022-11-28T08:41:51;18.42;;;9.63;;
54388;SDS011;40975;50.390;8.640;2022-11-28T08:44:17;19.42;;;9.32;;
54388;SDS011;40975;50.390;8.640;2022-11-28T08:46:42;14.80;;;8.65;;
54388;SDS011;40975;50.390;8.640;2022-11-28T08:49:08;16.80;;;8.57;;
54388;SDS011;40975;50.390;8.640;2022-11-28T08:51:33;18.58;;;9.02;;
54388;SDS011;40975;50.390;8.640;2022-11-28T08:53:58;17.85;;;9.02;;
54388;SDS011;40975;50.390;8.640;2022-11-28T08:56:24;19.48;;;9.07;;
54388;SDS011;40975;50.390;8.640;2022-11-28T08:58:49;17.38;;;9.32;;
54388;SDS011;40975;50.390;8.640;2022-11-28T09:01:15;16.25;;;8.57;;
54388;SDS011;40975;50.390;8.640;2022-11-28T09:03:42;15.90;;;8.82;;
54388;SDS011;40975;50.390;8.640;2022-11-28T09:06:08;17.42;;;8.20;;
54388;SDS011;40975;50.390;8.640;2022-11-28T09:08:33;17.30;;;9.07;;
54388;SDS011;40975;50.390;8.640;2022-11-28T09:10:59;17.25;;;9.02;;
54388;SDS011;40975;50.390;8.640;2022-11-28T09:13:24;17.05;;;9.05;;
54388;SDS011;40975;50.390;8.640;2022-11-28T09:15:49;18.85;;;8.55;;
54388;SDS011;40975;50.390;8.640;2022-11-28T09:18:15;19.25;;;8.38;;
54388;SDS011;40975;50.390;8.640;2022-11-28T09:20:40;18.70;;;9.00;;
54388;SDS011;40975;50.390;8.640;2022-11-28T09:23:06;13.95;;;7.93;;
54388;SDS011;40975;50.390;8.640;2022-11-28T09:25:35;17.23;;;8.30;;
54388;SDS011;40975;50.390;8.640;2022-11-28T09:28:02;15.68;;;8.77;;
54388;SDS011;40975;50.390;8.640;2022-11-28T09:30:27;18.88;;;8.73;;
54388;SDS011;40975;50.390;8.640;2022-11-28T09:32:53;17.95;;;8.90;;
54388;SDS011;40975;50.390;8.640;2022-11-28T09:35:18;16.20;;;9.65;;
54388;SDS011;40975;50.390;8.640;2022-11-28T09:37:44;19.55;;;9.75;;
54388;SDS011;40975;50.390;8.640;2022-11-28T09:40:28;15.57;;;8.57;;
54388;SDS011;40975;50.390;8.640;2022-11-28T09:43:02;16.23;;;9.32;;
54388;SDS011;40975;50.390;8.640;2022-11-28T09:45:35;15.93;;;8.50;;
54388;SDS011;40975;50.390;8.640;2022-11-28T09:48:04;19.85;;;9.80;;
54388;SDS011;40975;50.390;8.640;2022-11-28T09:50:52;17.42;;;8.30;;
54388;SDS011;40975;50.390;8.640;2022-11-28T09:56:15;17.30;;;8.15;;
54388;SDS011;40975;50.390;8.640;2022-11-28T09:58:53;14.13;;;8.13;;
54388;SDS011;40975;50.390;8.640;2022-11-28T10:04:24;17.42;;;8.63;;
54388;SDS011;40975;50.390;8.640;2022-11-28T10:07:03;16.60;;;8.82;;
54388;SDS011;40975;50.390;8.640;2022-11-28T10:12:35;18.25;;;8.20;;
54388;SDS011;40975;50.390;8.640;2022-11-28T10:20:49;19.05;;;8.90;;
54388;SDS011;40975;50.390;8.640;2022-11-28T10:23:23;17.67;;;8.07;;
54388;SDS011;40975;50.390;8.640;2022-11-28T10:28:22;18.27;;;10.45;;
54388;SDS011;40975;50.390;8.640;2022-11-28T10:30:53;19.17;;;9.35;;
54388;SDS011;40975;50.390;8.640;2022-11-28T10:33:26;15.13;;;9.07;;
54388;SDS011;40975;50.390;8.640;2022-11-28T10:36:19;17.52;;;8.77;;
54388;SDS011;40975;50.390;8.640;2022-11-28T10:38:50;20.65;;;9.98;;
54388;SDS011;40975;50.390;8.640;2022-11-28T10:44:04;19.50;;;8.98;;
54388;SDS011;40975;50.390;8.640;2022-11-28T10:46:56;17.17;;;9.05;;
54388;SDS011;40975;50.390;8.640;2022-11-28T10:49:47;17.70;;;9.55;;
54388;SDS011;40975;50.390;8.640;2022-11-28T10:52:25;16.05;;;9.20;;
54388;SDS011;40975;50.390;8.640;2022-11-28T10:55:02;15.90;;;8.70;;
54388;SDS011;40975;50.390;8.640;2022-11-28T10:57:42;16.60;;;8.23;;
54388;SDS011;40975;50.390;8.640;2022-11-28T11:00:27;17.08;;;8.95;;
54388;SDS011;40975;50.390;8.640;2022-11-28T11:02:53;15.90;;;8.00;;
54388;SDS011;40975;50.390;8.640;2022-11-28T11:05:23;17.33;;;8.98;;
54388;SDS011;40975;50.390;8.640;2022-11-28T11:07:55;20.65;;;9.93;;
54388;SDS011;40975;50.390;8.640;2022-11-28T11:12:50;14.97;;;7.60;;
54388;SDS011;40975;50.390;8.640;2022-11-28T11:17:53;16.65;;;9.75;;
54388;SDS011;40975;50.390;8.640;2022-11-28T11:22:52;16.92;;;8.40;;
54388;SDS011;40975;50.390;8.640;2022-11-28T11:25:18;15.30;;;8.98;;
54388;SDS011;40975;50.390;8.640;2022-11-28T11:30:29;14.90;;;8.32;;
54388;SDS011;40975;50.390;8.640;2022-11-28T11:32:56;13.95;;;7.55;;
54388;SDS011;40975;50.390;8.640;2022-11-28T11:35:28;21.15;;;8.23;;
54388;SDS011;40975;50.390;8.640;2022-11-28T11:40:51;14.48;;;8.82;;
54388;SDS011;40975;50.390;8.640;2022-11-28T11:43:24;17.48;;;8.73;;
54388;SDS011;40975;50.390;8.640;2022-11-28T11:46:08;14.88;;;8.60;;
54388;SDS011;40975;50.390;8.640;2022-11-28T11:48:44;16.33;;;8.68;;
54388;SDS011;40975;50.390;8.640;2022-11-28T11:51:25;15.65;;;8.80;;
54388;SDS011;40975;50.390;8.640;2022-11-28T11:54:03;14.25;;;8.30;;
54388;SDS011;40975;50.390;8.640;2022-11-28T11:56:41;15.77;;;8.38;;
54388;SDS011;40975;50.390;8.640;2022-11-28T11:59:11;15.13;;;8.75;;
54388;SDS011;40975;50.390;8.640;2022-11-28T12:01:41;14.38;;;7.90;;
54388;SDS011;40975;50.390;8.640;2022-11-28T12:04:14;20.77;;;9.38;;
54388;SDS011;40975;50.390;8.640;2022-11-28T12:06:47;16.20;;;9.07;;
54388;SDS011;40975;50.390;8.640;2022-11-28T12:12:20;16.58;;;8.82;;
54388;SDS011;40975;50.390;8.640;2022-11-28T12:14:48;15.40;;;8.27;;
54388;SDS011;40975;50.390;8.640;2022-11-28T12:17:23;15.10;;;9.18;;
54388;SDS011;40975;50.390;8.640;2022-11-28T12:19:55;14.38;;;8.60;;
54388;SDS011;40975;50.390;8.640;2022-11-28T12:22:47;14.30;;;8.52;;
54388;SDS011;40975;50.390;8.640;2022-11-28T12:25:31;21.17;;;10.25;;
54388;SDS011;40975;50.390;8.640;2022-11-28T12:28:15;19.15;;;9.70;;
54388;SDS011;40975;50.390;8.640;2022-11-28T12:31:02;14.93;;;8.57;;
54388;SDS011;40975;50.390;8.640;2022-11-28T12:33:46;15.43;;;9.20;;
54388;SDS011;40975;50.390;8.640;2022-11-28T12:36:32;15.60;;;8.57;;
54388;SDS011;40975;50.390;8.640;2022-11-28T12:42:07;15.30;;;9.10;;
54388;SDS011;40975;50.390;8.640;2022-11-28T12:53:02;17.35;;;9.10;;
54388;SDS011;40975;50.390;8.640;2022-11-28T13:04:16;15.45;;;8.82;;
54388;SDS011;40975;50.390;8.640;2022-11-28T13:07:07;19.95;;;9.75;;
54388;SDS011;40975;50.390;8.640;2022-11-28T13:09:57;17.55;;;10.40;;
54388;SDS011;40975;50.390;8.640;2022-11-28T13:12:32;17.08;;;10.20;;
54388;SDS011;40975;50.390;8.640;2022-11-28T13:15:15;18.80;;;10.27;;
54388;SDS011;40975;50.390;8.640;2022-11-28T13:17:52;15.23;;;9.48;;
54388;SDS011;40975;50.390;8.640;2022-11-28T13:20:25;16.02;;;9.40;;
54388;SDS011;40975;50.390;8.640;2022-11-28T13:25:45;14.98;;;9.30;;
54388;SDS011;40975;50.390;8.640;2022-11-28T13:28:28;16.77;;;9.63;;
54388;SDS011;40975;50.390;8.640;2022-11-28T13:31:20;18.63;;;11.35;;
54388;SDS011;40975;50.390;8.640;2022-11-28T13:33:53;13.88;;;8.93;;
54388;SDS011;40975;50.390;8.640;2022-11-28T13:38:59;18.27;;;9.93;;
54388;SDS011;40975;50.390;8.640;2022-11-28T13:41:47;17.23;;;9.77;;
54388;SDS011;40975;50.390;8.640;2022-11-28T13:44:42;14.98;;;9.07;;
54388;SDS011;40975;50.390;8.640;2022-11-28T13:47:13;19.05;;;9.73;;
54388;SDS011;40975;50.390;8.640;2022-11-28T13:49:47;16.02;;;9.32;;
54388;SDS011;40975;50.390;8.640;2022-11-28T13:54:53;17.23;;;9.52;;
54388;SDS011;40975;50.390;8.640;2022-11-28T13:59:59;17.85;;;8.73;;
54388;SDS011;40975;50.390;8.640;2022-11-28T14:02:48;18.58;;;10.25;;
54388;SDS011;40975;50.390;8.640;2022-11-28T14:05:34;17.38;;;9.98;;
54388;SDS011;40975;50.390;8.640;2022-11-28T14:08:02;17.20;;;9.32;;
54388;SDS011;40975;50.390;8.640;2022-11-28T14:10:39;16.02;;;9.48;;
54388;SDS011;40975;50.390;8.640;2022-11-28T14:13:51;18.50;;;10.90;;
54388;SDS011;40975;50.390;8.640;2022-11-28T14:16:22;18.92;;;10.57;;
54388;SDS011;40975;50.390;8.640;2022-11-28T14:19:11;19.23;;;11.88;;
54388;SDS011;40975;50.390;8.640;2022-11-28T14:21:56;19.70;;;10.77;;
54388;SDS011;40975;50.390;8.640;2022-11-28T14:27:14;20.13;;;12.65;;
54388;SDS011;40975;50.390;8.640;2022-11-28T14:29:46;18.58;;;11.40;;
54388;SDS011;40975;50.390;8.640;2022-11-28T14:32:37;20.67;;;11.82;;
54388;SDS011;40975;50.390;8.640;2022-11-28T14:35:05;19.23;;;9.93;;
54388;SDS011;40975;50.390;8.640;2022-11-28T14:37:47;17.15;;;10.90;;
54388;SDS011;40975;50.390;8.640;2022-11-28T14:56:49;20.25;;;10.77;;
54388;SDS011;40975;50.390;8.640;2022-11-28T14:59:16;22.45;;;11.80;;
54388;SDS011;40975;50.390;8.640;2022-11-28T15:07:33;18.60;;;11.75;;
54388;SDS011;40975;50.390;8.640;2022-11-28T15:10:17;24.48;;;11.88;;
54388;SDS011;40975;50.390;8.640;2022-11-28T15:13:02;19.73;;;11.20;;
54388;SDS011;40975;50.390;8.640;2022-11-28T15:15:49;21.23;;;11.82;;
54388;SDS011;40975;50.390;8.640;2022-11-28T15:18:17;29.40;;;12.63;;
54388;SDS011;40975;50.390;8.640;2022-11-28T15:20:45;22.88;;;11.77;;
54388;SDS011;40975;50.390;8.640;2022-11-28T15:23:24;19.08;;;10.77;;
54388;SDS011;40975;50.390;8.640;2022-11-28T15:25:53;29.17;;;14.73;;
54388;SDS011;40975;50.390;8.640;2022-11-28T15:28:21;32.13;;;13.60;;
54388;SDS011;40975;50.390;8.640;2022-11-28T15:30:53;24.42;;;13.55;;
54388;SDS011;40975;50.390;8.640;2022-11-28T15:33:20;27.85;;;15.60;;
54388;SDS011;40975;50.390;8.640;2022-11-28T15:35:59;31.52;;;14.85;;
54388;SDS011;40975;50.390;8.640;2022-11-28T15:38:27;27.98;;;13.18;;
54388;SDS011;40975;50.390;8.640;2022-11-28T15:40:55;23.55;;;12.35;;
54388;SDS011;40975;50.390;8.640;2022-11-28T15:43:22;31.13;;;14.13;;
54388;SDS011;40975;50.390;8.640;2022-11-28T15:45:49;33.13;;;15.45;;
54388;SDS011;40975;50.390;8.640;2022-11-28T15:50:57;21.23;;;12.20;;
54388;SDS011;40975;50.390;8.640;2022-11-28T15:53:23;22.33;;;11.45;;
54388;SDS011;40975;50.390;8.640;2022-11-28T15:56:05;20.50;;;10.90;;
54388;SDS011;40975;50.390;8.640;2022-11-28T15:58:41;20.80;;;10.88;;
54388;SDS011;40975;50.390;8.640;2022-11-28T16:01:13;21.63;;;10.48;;
54388;SDS011;40975;50.390;8.640;2022-11-28T16:03:44;19.75;;;11.20;;
54388;SDS011;40975;50.390;8.640;2022-11-28T16:06:30;19.45;;;11.23;;
54388;SDS011;40975;50.390;8.640;2022-11-28T16:11:29;23.87;;;11.60;;
54388;SDS011;40975;50.390;8.640;2022-11-28T16:13:56;21.08;;;11.90;;
54388;SDS011;40975;50.390;8.640;2022-11-28T16:16:27;19.38;;;12.43;;
54388;SDS011;40975;50.390;8.640;2022-11-28T16:18:59;23.20;;;11.95;;
54388;SDS011;40975;50.390;8.640;2022-11-28T16:21:46;20.27;;;11.38;;
54388;SDS011;40975;50.390;8.640;2022-11-28T16:24:19;21.48;;;11.73;;
54388;SDS011;40975;50.390;8.640;2022-11-28T16:26:56;20.70;;;11.30;;
54388;SDS011;40975;50.390;8.640;2022-11-28T16:29:25;26.38;;;12.38;;
54388;SDS011;40975;50.390;8.640;2022-11-28T16:31:54;20.23;;;11.90;;
54388;SDS011;40975;50.390;8.640;2022-11-28T16:34:43;20.88;;;11.57;;
54388;SDS011;40975;50.390;8.640;2022-11-28T16:37:10;23.77;;;11.85;;
54388;SDS011;40975;50.390;8.640;2022-11-28T16:39:36;26.40;;;11.45;;
54388;SDS011;40975;50.390;8.640;2022-11-28T16:42:05;26.52;;;11.88;;
54388;SDS011;40975;50.390;8.640;2022-11-28T16:44:38;25.42;;;12.48;;
54388;SDS011;40975;50.390;8.640;2022-11-28T16:47:03;23.00;;;12.02;;
54388;SDS011;40975;50.390;8.640;2022-11-28T16:49:36;22.38;;;12.18;;
54388;SDS011;40975;50.390;8.640;2022-11-28T16:54:47;24.05;;;13.02;;
54388;SDS011;40975;50.390;8.640;2022-11-28T16:57:13;26.02;;;11.65;;
54388;SDS011;40975;50.390;8.640;2022-11-28T16:59:39;21.25;;;11.88;;
54388;SDS011;40975;50.390;8.640;2022-11-28T17:02:39;22.05;;;11.38;;
54388;SDS011;40975;50.390;8.640;2022-11-28T17:04:57;23.55;;;13.07;;
54388;SDS011;40975;50.390;8.640;2022-11-28T17:07:23;28.73;;;12.98;;
54388;SDS011;40975;50.390;8.640;2022-11-28T17:09:48;23.25;;;12.15;;
54388;SDS011;40975;50.390;8.640;2022-11-28T17:14:51;24.75;;;13.07;;